createdAt,value
2018-01-26T00:00:14.089Z,37.20
2018-01-26T00:02:41.744Z,37.67
2018-01-26T00:07:43.126Z,39.53
2018-01-26T00:10:11.039Z,39.77
2018-01-26T00:12:38.604Z,42.40
2018-01-26T00:17:39.902Z,37.17
2018-01-26T00:20:07.529Z,37.70
2018-01-26T00:22:35.102Z,38.70
2018-01-26T00:25:02.658Z,42.90
2018-01-26T00:27:30.513Z,41.07
2018-01-26T00:29:58.082Z,40.53
2018-01-26T00:32:25.672Z,36.90
2018-01-26T00:34:53.285Z,44.17
2018-01-26T00:37:20.837Z,39.30
2018-01-26T00:39:48.424Z,39.10
2018-01-26T00:42:16.015Z,37.67
2018-01-26T00:44:43.639Z,41.00
2018-01-26T00:47:11.463Z,36.17
2018-01-26T00:49:39.132Z,33.20
2018-01-26T00:52:06.701Z,45.00
2018-01-26T00:54:34.282Z,36.80
2018-01-26T00:57:02.184Z,39.17
2018-01-26T00:59:29.742Z,39.90
2018-01-26T01:01:57.305Z,38.93
2018-01-26T01:04:24.951Z,39.40
2018-01-26T01:06:52.806Z,33.97
2018-01-26T01:09:20.389Z,30.60
2018-01-26T01:11:47.986Z,28.60
2018-01-26T01:14:15.793Z,27.23
2018-01-26T01:16:43.355Z,24.57
2018-01-26T01:19:10.951Z,25.90
2018-01-26T01:21:38.517Z,20.60
2018-01-26T01:24:06.085Z,20.93
2018-01-26T01:26:33.670Z,23.93
2018-01-26T01:29:01.586Z,22.30
2018-01-26T01:31:29.209Z,27.17
2018-01-26T01:33:56.791Z,33.10
2018-01-26T01:36:24.355Z,38.20
2018-01-26T01:38:51.940Z,34.87
2018-01-26T01:41:19.607Z,36.53
2018-01-26T01:43:47.164Z,39.37
2018-01-26T01:46:14.721Z,40.00
2018-01-26T01:48:42.356Z,38.80
2018-01-26T01:51:09.944Z,45.27
2018-01-26T01:53:37.525Z,41.50
2018-01-26T01:56:05.187Z,45.63
2018-01-26T01:58:32.757Z,43.50
2018-01-26T02:01:00.814Z,46.87
2018-01-26T02:03:28.434Z,45.57
2018-01-26T02:05:56.043Z,41.53
2018-01-26T02:08:23.611Z,48.40
2018-01-26T02:10:51.537Z,46.07
2018-01-26T02:13:19.097Z,43.00
2018-01-26T02:15:46.976Z,43.47
2018-01-26T02:18:14.672Z,58.17
2018-01-26T02:20:42.222Z,53.03
2018-01-26T02:23:09.781Z,48.93
2018-01-26T02:25:37.409Z,45.07
2018-01-26T02:28:05.206Z,46.70
2018-01-26T02:30:32.776Z,52.53
2018-01-26T02:33:00.368Z,45.80
2018-01-26T02:35:27.919Z,50.43
2018-01-26T02:37:55.500Z,50.27
2018-01-26T02:40:23.246Z,41.93
2018-01-26T02:42:50.812Z,46.57
2018-01-26T02:45:18.356Z,46.90
2018-01-26T02:47:45.957Z,42.70
2018-01-26T02:50:13.510Z,42.77
2018-01-26T02:52:41.079Z,46.57
2018-01-26T02:55:08.676Z,53.47
2018-01-26T02:57:36.236Z,47.07
2018-01-26T03:00:04.187Z,47.60
2018-01-26T03:02:31.838Z,47.17
2018-01-26T03:04:59.462Z,54.53
2018-01-26T03:07:27.122Z,50.40
2018-01-26T03:09:54.701Z,51.43
2018-01-26T03:12:22.500Z,60.63
2018-01-26T03:14:50.044Z,46.77
2018-01-26T03:17:17.937Z,45.03
2018-01-26T03:19:45.485Z,45.37
2018-01-26T03:22:13.047Z,46.40
2018-01-26T03:24:40.876Z,48.17
2018-01-26T03:27:08.681Z,40.87
2018-01-26T03:29:36.555Z,41.73
2018-01-26T03:32:04.185Z,46.03
2018-01-26T03:34:31.751Z,42.53
2018-01-26T03:36:59.365Z,42.93
2018-01-26T03:39:26.930Z,42.30
2018-01-26T03:41:54.490Z,48.83
2018-01-26T03:44:22.060Z,45.53
2018-01-26T03:46:49.639Z,42.90
2018-01-26T03:49:17.258Z,40.73
2018-01-26T03:51:44.888Z,43.37
2018-01-26T03:54:12.778Z,38.13
2018-01-26T03:56:40.398Z,45.63
2018-01-26T03:59:08.013Z,38.50
2018-01-26T04:01:35.595Z,45.60
2018-01-26T04:04:03.357Z,39.63
2018-01-26T04:06:31.309Z,40.17
2018-01-26T04:08:58.910Z,44.50
2018-01-26T04:11:26.474Z,41.23
2018-01-26T04:13:54.043Z,44.10
2018-01-26T04:16:21.788Z,45.07
2018-01-26T04:18:49.617Z,41.10
2018-01-26T04:21:17.480Z,42.37
2018-01-26T04:23:45.074Z,34.20
2018-01-26T04:26:12.644Z,43.87
2018-01-26T04:28:40.229Z,43.07
2018-01-26T04:31:07.855Z,52.87
2018-01-26T04:33:35.421Z,51.30
2018-01-26T04:36:03.083Z,50.60
2018-01-26T04:38:31.147Z,56.87
2018-01-26T04:40:58.766Z,46.50
2018-01-26T04:43:26.436Z,51.83
2018-01-26T04:45:54.230Z,54.50
2018-01-26T04:48:21.789Z,53.67
2018-01-26T04:50:49.451Z,57.17
2018-01-26T04:53:17.123Z,48.00
2018-01-26T04:55:44.689Z,56.37
2018-01-26T04:58:12.531Z,49.73
2018-01-26T05:00:40.126Z,51.57
2018-01-26T05:03:07.695Z,52.73
2018-01-26T05:05:35.312Z,49.80
2018-01-26T05:08:02.900Z,64.33
2018-01-26T05:10:30.744Z,75.53
2018-01-26T05:12:58.347Z,58.47
2018-01-26T05:15:25.957Z,68.40
2018-01-26T05:17:53.520Z,68.90
2018-01-26T05:20:21.052Z,55.27
2018-01-26T05:22:48.632Z,56.60
2018-01-26T05:25:16.664Z,63.43
2018-01-26T05:27:44.231Z,62.93
2018-01-26T05:30:11.871Z,61.63
2018-01-26T05:32:39.464Z,51.97
2018-01-26T05:35:07.273Z,62.57
2018-01-26T05:37:34.874Z,59.73
2018-01-26T05:40:02.448Z,65.63
2018-01-26T05:42:30.068Z,68.27
2018-01-26T05:44:57.668Z,54.73
2018-01-26T05:47:25.258Z,66.77
2018-01-26T05:49:52.962Z,112.03
2018-01-26T05:52:20.626Z,79.80
2018-01-26T05:54:48.206Z,66.30
2018-01-26T05:57:15.766Z,73.77
2018-01-26T05:59:43.698Z,67.60
2018-01-26T06:02:11.272Z,75.17
2018-01-26T06:04:38.860Z,66.87
2018-01-26T06:07:06.441Z,73.77
2018-01-26T06:09:34.008Z,69.40
2018-01-26T06:12:01.663Z,63.03
2018-01-26T06:14:29.217Z,71.07
2018-01-26T06:16:56.896Z,66.30
2018-01-26T06:19:24.478Z,77.17
2018-01-26T06:21:52.128Z,67.43
2018-01-26T06:24:19.871Z,76.10
2018-01-26T06:26:47.488Z,74.37
2018-01-26T06:29:15.110Z,84.27
2018-01-26T06:31:42.688Z,78.97
2018-01-26T06:34:10.269Z,76.13
2018-01-26T06:36:37.871Z,70.87
2018-01-26T06:39:05.470Z,75.47
2018-01-26T06:41:33.030Z,73.10
2018-01-26T06:44:00.652Z,86.00
2018-01-26T06:46:28.251Z,82.70
2018-01-26T06:48:55.871Z,90.20
2018-01-26T06:51:23.472Z,76.10
2018-01-26T06:53:51.053Z,90.37
2018-01-26T06:56:18.713Z,81.47
2018-01-26T06:58:46.314Z,92.07
2018-01-26T07:01:13.951Z,75.33
2018-01-26T07:03:41.924Z,77.57
2018-01-26T07:06:09.546Z,70.50
2018-01-26T07:08:37.211Z,76.50
2018-01-26T07:11:04.793Z,71.57
2018-01-26T07:13:32.359Z,67.53
2018-01-26T07:15:59.948Z,80.63
2018-01-26T07:18:27.525Z,73.00
2018-01-26T07:20:55.130Z,70.87
2018-01-26T07:23:23.088Z,77.30
2018-01-26T07:25:50.722Z,66.60
2018-01-26T07:28:18.325Z,70.63
2018-01-26T07:30:45.937Z,75.77
2018-01-26T07:33:13.553Z,74.80
2018-01-26T07:35:41.103Z,70.83
2018-01-26T07:38:08.694Z,72.57
2018-01-26T07:40:36.296Z,75.73
2018-01-26T07:43:03.921Z,77.47
2018-01-26T07:45:31.580Z,83.97
2018-01-26T07:47:59.205Z,88.70
2018-01-26T07:50:27.105Z,69.60
2018-01-26T07:52:54.974Z,85.63
2018-01-26T07:55:22.840Z,83.03
2018-01-26T07:57:50.702Z,83.90
2018-01-26T08:00:18.480Z,90.00
2018-01-26T08:02:46.340Z,93.30
2018-01-26T08:05:13.920Z,89.90
2018-01-26T08:07:41.944Z,86.83
2018-01-26T08:10:09.607Z,79.03
2018-01-26T08:12:37.616Z,82.10
2018-01-26T08:15:05.846Z,81.57
2018-01-26T08:17:34.497Z,88.60
2018-01-26T08:20:03.352Z,94.13
2018-01-26T08:22:31.086Z,83.47
2018-01-26T08:24:59.098Z,85.70
2018-01-26T08:27:26.707Z,82.53
2018-01-26T08:29:54.869Z,87.20
2018-01-26T08:32:22.807Z,85.93
2018-01-26T08:34:50.675Z,86.10
2018-01-26T08:37:18.343Z,91.80
2018-01-26T08:39:45.950Z,76.20
2018-01-26T08:42:14.125Z,82.20
2018-01-26T08:44:41.715Z,79.40
2018-01-26T08:47:09.361Z,83.93
2018-01-26T08:49:36.926Z,93.57
2018-01-26T08:52:04.820Z,85.50
2018-01-26T08:54:32.431Z,86.10
2018-01-26T08:57:00.042Z,81.27
2018-01-26T08:59:27.653Z,86.93
2018-01-26T09:01:55.404Z,78.77
2018-01-26T09:04:23.059Z,89.97
2018-01-26T09:06:50.663Z,80.13
2018-01-26T09:09:18.237Z,93.17
2018-01-26T09:11:45.826Z,84.53
2018-01-26T09:14:13.701Z,77.60
2018-01-26T09:16:41.945Z,79.63
2018-01-26T09:19:09.571Z,83.50
2018-01-26T09:21:37.397Z,98.57
2018-01-26T09:24:05.065Z,93.87
2018-01-26T09:26:32.688Z,96.37
2018-01-26T09:29:00.267Z,100.13
2018-01-26T09:31:27.888Z,100.67
2018-01-26T09:33:55.517Z,96.03
2018-01-26T09:36:23.150Z,89.30
2018-01-26T09:38:51.046Z,107.07
2018-01-26T09:41:18.604Z,100.43
2018-01-26T09:43:46.170Z,92.17
2018-01-26T09:46:13.779Z,93.87
2018-01-26T09:48:41.429Z,101.30
2018-01-26T09:51:08.978Z,94.33
2018-01-26T09:53:36.551Z,89.57
2018-01-26T09:56:04.144Z,82.03
2018-01-26T09:58:31.705Z,95.17
2018-01-26T10:00:59.314Z,116.10
2018-01-26T10:03:26.914Z,99.60
2018-01-26T10:05:54.609Z,106.77
2018-01-26T10:08:22.217Z,98.30
2018-01-26T10:10:49.809Z,105.43
2018-01-26T10:13:17.392Z,98.20
2018-01-26T10:15:44.960Z,104.23
2018-01-26T10:18:12.839Z,107.53
2018-01-26T10:20:40.528Z,118.33
2018-01-26T10:23:08.120Z,125.40
2018-01-26T10:25:36.036Z,102.80
2018-01-26T10:28:03.599Z,111.13
2018-01-26T10:30:31.198Z,129.70
2018-01-26T10:32:58.787Z,110.83
2018-01-26T10:35:26.381Z,114.70
2018-01-26T10:37:54.337Z,114.13
2018-01-26T10:40:21.966Z,108.50
2018-01-26T10:42:49.575Z,109.73
2018-01-26T10:45:17.169Z,105.10
2018-01-26T10:47:44.758Z,117.63
2018-01-26T10:50:12.384Z,123.40
2018-01-26T10:52:39.978Z,107.10
2018-01-26T10:55:07.569Z,112.33
2018-01-26T10:57:35.155Z,109.30
2018-01-26T11:00:02.765Z,114.23
2018-01-26T11:02:30.399Z,114.67
2018-01-26T11:04:57.986Z,106.00
2018-01-26T11:07:25.654Z,100.83
2018-01-26T11:09:53.272Z,100.83
2018-01-26T11:12:20.921Z,95.70
2018-01-26T11:14:48.590Z,91.97
2018-01-26T11:17:16.204Z,101.80
2018-01-26T11:19:43.769Z,98.63
2018-01-26T11:22:12.245Z,117.80
2018-01-26T11:24:39.840Z,98.80
2018-01-26T11:27:07.433Z,92.07
2018-01-26T11:29:35.064Z,99.17
2018-01-26T11:32:02.634Z,97.93
2018-01-26T11:34:30.264Z,108.73
2018-01-26T11:36:57.842Z,95.77
2018-01-26T11:39:25.496Z,100.23
2018-01-26T11:41:53.372Z,97.17
2018-01-26T11:44:21.034Z,102.17
2018-01-26T11:46:49.003Z,93.07
2018-01-26T11:49:16.608Z,100.50
2018-01-26T11:51:44.428Z,86.40
2018-01-26T11:54:11.990Z,93.93
2018-01-26T11:56:39.580Z,84.53
2018-01-26T11:59:07.172Z,125.10
2018-01-26T12:01:37.129Z,148.90
2018-01-26T12:04:06.281Z,98.20
2018-01-26T12:06:34.196Z,73.10
2018-01-26T12:09:02.124Z,85.47
2018-01-26T12:11:30.129Z,81.77
2018-01-26T12:14:00.360Z,85.07
2018-01-26T12:16:27.955Z,68.70
2018-01-26T12:18:55.596Z,54.67
2018-01-26T12:21:23.428Z,40.50
2018-01-26T12:23:51.035Z,38.83
2018-01-26T12:26:18.615Z,33.07
2018-01-26T12:28:46.563Z,26.13
2018-01-26T12:31:14.216Z,30.87
2018-01-26T12:33:41.811Z,27.43
2018-01-26T12:36:09.414Z,23.20
2018-01-26T12:38:36.977Z,28.93
2018-01-26T12:41:04.584Z,39.90
2018-01-26T12:43:32.448Z,32.90
2018-01-26T12:46:00.011Z,19.60
2018-01-26T12:48:27.630Z,15.43
2018-01-26T12:50:55.197Z,22.73
2018-01-26T12:53:23.079Z,50.87
2018-01-26T12:55:50.904Z,19.20
2018-01-26T12:58:18.479Z,19.07
2018-01-26T13:00:46.048Z,15.53
2018-01-26T13:03:13.928Z,20.07
2018-01-26T13:05:41.748Z,14.60
2018-01-26T13:08:09.315Z,16.23
2018-01-26T13:10:36.919Z,15.97
2018-01-26T13:13:04.508Z,19.07
2018-01-26T13:15:32.085Z,20.17
2018-01-26T13:17:59.664Z,25.33
2018-01-26T13:20:27.580Z,16.27
2018-01-26T13:22:55.171Z,14.53
2018-01-26T13:25:22.791Z,15.37
2018-01-26T13:27:50.360Z,16.73
2018-01-26T13:30:17.974Z,15.00
2018-01-26T13:32:45.573Z,13.87
2018-01-26T13:35:13.474Z,15.60
2018-01-26T13:37:41.064Z,17.23
2018-01-26T13:40:08.687Z,16.47
2018-01-26T13:42:36.277Z,16.70
2018-01-26T13:45:03.852Z,19.33
2018-01-26T13:47:31.444Z,32.23
2018-01-26T13:49:59.012Z,18.30
2018-01-26T13:52:26.608Z,31.47
2018-01-26T13:54:54.238Z,21.70
2018-01-26T13:57:21.902Z,13.47
2018-01-26T13:59:49.494Z,14.93
2018-01-26T14:02:17.122Z,19.70
2018-01-26T14:04:44.732Z,20.33
2018-01-26T14:07:12.280Z,22.10
2018-01-26T14:09:39.861Z,16.73
2018-01-26T14:12:07.502Z,20.67
2018-01-26T14:14:35.056Z,14.10
2018-01-26T14:17:02.674Z,16.40
2018-01-26T14:19:30.300Z,16.47
2018-01-26T14:21:58.052Z,15.77
2018-01-26T14:24:25.621Z,16.50
2018-01-26T14:26:53.221Z,20.20
2018-01-26T14:29:20.848Z,16.90
2018-01-26T14:31:48.430Z,18.53
2018-01-26T14:34:15.993Z,16.23
2018-01-26T14:36:43.595Z,16.90
2018-01-26T14:39:11.228Z,16.80
2018-01-26T14:41:38.807Z,19.63
2018-01-26T14:44:06.388Z,17.27
2018-01-26T14:46:33.939Z,23.00
2018-01-26T14:49:01.554Z,16.03
2018-01-26T14:51:29.171Z,26.50
2018-01-26T14:53:57.266Z,17.00
2018-01-26T14:56:24.830Z,19.23
2018-01-26T14:58:52.390Z,18.63
2018-01-26T15:01:19.986Z,19.83
2018-01-26T15:03:48.189Z,17.70
2018-01-26T15:06:15.804Z,16.63
2018-01-26T15:08:43.399Z,29.40
2018-01-26T15:11:10.982Z,17.50
2018-01-26T15:13:38.616Z,17.50
2018-01-26T15:16:06.200Z,19.50
2018-01-26T15:18:33.772Z,24.33
2018-01-26T15:21:01.463Z,14.47
2018-01-26T15:23:29.072Z,19.07
2018-01-26T15:25:56.687Z,23.80
2018-01-26T15:28:24.300Z,17.90
2018-01-26T15:30:51.883Z,18.67
2018-01-26T15:33:19.465Z,16.33
2018-01-26T15:35:47.365Z,22.77
2018-01-26T15:38:15.004Z,17.67
2018-01-26T15:40:42.591Z,21.07
2018-01-26T15:43:10.212Z,28.73
2018-01-26T15:45:37.770Z,22.70
2018-01-26T15:48:05.336Z,23.43
2018-01-26T15:50:33.001Z,24.37
2018-01-26T15:53:00.655Z,23.67
2018-01-26T15:55:28.737Z,27.27
2018-01-26T15:57:56.336Z,24.10
2018-01-26T16:00:23.934Z,21.67
2018-01-26T16:02:51.544Z,21.20
2018-01-26T16:05:19.199Z,32.37
2018-01-26T16:07:46.810Z,26.30
2018-01-26T16:10:14.385Z,33.23
2018-01-26T16:12:42.002Z,32.37
2018-01-26T16:15:09.551Z,26.17
2018-01-26T16:17:37.121Z,29.00
2018-01-26T16:20:04.837Z,23.90
2018-01-26T16:22:32.702Z,31.53
2018-01-26T16:25:00.677Z,26.57
2018-01-26T16:27:28.360Z,26.50
2018-01-26T16:29:56.201Z,26.07
2018-01-26T16:32:23.858Z,32.27
2018-01-26T16:34:51.437Z,27.23
2018-01-26T16:37:19.298Z,29.03
2018-01-26T16:39:46.846Z,24.60
2018-01-26T16:42:14.396Z,31.03
2018-01-26T16:44:42.009Z,31.93
2018-01-26T16:47:09.577Z,30.87
2018-01-26T16:49:37.668Z,26.40
2018-01-26T16:52:05.260Z,33.50
2018-01-26T16:54:32.893Z,33.13
2018-01-26T16:57:00.508Z,22.00
2018-01-26T16:59:28.086Z,31.23
2018-01-26T17:01:55.922Z,32.70
2018-01-26T17:04:23.505Z,34.00
2018-01-26T17:06:51.344Z,31.37
2018-01-26T17:09:18.936Z,30.40
2018-01-26T17:11:46.554Z,32.70
2018-01-26T17:14:14.233Z,29.53
2018-01-26T17:16:41.808Z,28.27
2018-01-26T17:19:09.400Z,31.67
2018-01-26T17:21:36.981Z,29.40
2018-01-26T17:24:04.644Z,29.60
2018-01-26T17:26:32.322Z,27.97
2018-01-26T17:29:00.227Z,33.50
2018-01-26T17:31:27.805Z,30.17
2018-01-26T17:33:55.414Z,35.37
2018-01-26T17:36:23.011Z,38.13
2018-01-26T17:38:50.969Z,36.13
2018-01-26T17:41:18.586Z,26.83
2018-01-26T17:43:46.183Z,28.80
2018-01-26T17:46:13.815Z,37.63
2018-01-26T17:48:41.728Z,26.70
2018-01-26T17:51:09.345Z,29.40
2018-01-26T17:53:36.889Z,27.90
2018-01-26T17:56:04.462Z,32.40
2018-01-26T17:58:32.097Z,22.80
2018-01-26T18:01:00.051Z,28.37
2018-01-26T18:03:27.707Z,29.70
2018-01-26T18:05:55.273Z,31.10
2018-01-26T18:08:23.129Z,32.20
2018-01-26T18:10:51.100Z,27.17
2018-01-26T18:13:18.727Z,31.33
2018-01-26T18:15:46.405Z,30.90
2018-01-26T18:18:15.855Z,30.33
2018-01-26T18:20:43.476Z,37.07
2018-01-26T18:23:11.569Z,35.13
2018-01-26T18:25:39.181Z,32.50
2018-01-26T18:28:06.745Z,27.13
2018-01-26T18:30:34.377Z,33.90
2018-01-26T18:33:02.091Z,38.20
2018-01-26T18:35:29.724Z,27.10
2018-01-26T18:37:57.331Z,35.10
2018-01-26T18:40:24.929Z,37.77
2018-01-26T18:42:52.544Z,35.27
2018-01-26T18:45:20.431Z,28.57
2018-01-26T18:47:48.052Z,36.30
2018-01-26T18:50:15.646Z,30.53
2018-01-26T18:52:43.210Z,34.17
2018-01-26T18:55:10.795Z,31.63
2018-01-26T18:57:38.410Z,33.97
2018-01-26T19:00:05.983Z,32.43
2018-01-26T19:02:33.546Z,33.23
2018-01-26T19:05:01.439Z,30.50
2018-01-26T19:07:29.309Z,45.23
2018-01-26T19:09:56.910Z,32.10
2018-01-26T19:12:24.820Z,35.50
2018-01-26T19:14:52.399Z,37.90
2018-01-26T19:17:20.050Z,37.70
2018-01-26T19:19:47.713Z,35.37
2018-01-26T19:22:15.275Z,40.03
2018-01-26T19:24:42.911Z,35.83
2018-01-26T19:27:13.963Z,37.87
2018-01-26T19:29:41.747Z,35.77
2018-01-26T19:32:09.348Z,32.73
2018-01-26T19:34:36.943Z,36.27
2018-01-26T19:37:04.576Z,44.67
2018-01-26T19:39:32.197Z,33.70
2018-01-26T19:41:59.798Z,34.53
2018-01-26T19:44:27.511Z,42.63
2018-01-26T19:46:55.079Z,38.63
2018-01-26T19:49:22.730Z,35.80
2018-01-26T19:51:50.321Z,34.37
2018-01-26T19:54:17.893Z,35.53
2018-01-26T19:56:45.507Z,41.57
2018-01-26T19:59:13.104Z,37.43
2018-01-26T20:01:40.703Z,41.60
2018-01-26T20:04:08.474Z,40.50
2018-01-26T20:06:53.493Z,38.33
2018-01-26T20:09:25.841Z,48.10
2018-01-26T20:11:59.203Z,42.20
2018-01-26T20:14:27.455Z,35.47
2018-01-26T20:16:55.127Z,49.53
2018-01-26T20:19:23.074Z,43.03
2018-01-26T20:21:50.657Z,41.10
2018-01-26T20:24:19.114Z,42.30
2018-01-26T20:26:47.081Z,42.23
2018-01-26T20:29:14.681Z,53.03
2018-01-26T20:31:42.282Z,43.40
2018-01-26T20:34:10.166Z,39.87
2018-01-26T20:36:37.825Z,42.80
2018-01-26T20:39:05.428Z,39.17
2018-01-26T20:41:33.019Z,46.47
2018-01-26T20:44:00.631Z,48.67
2018-01-26T20:46:28.211Z,45.67
2018-01-26T20:48:55.804Z,38.97
2018-01-26T20:51:23.447Z,43.47
2018-01-26T20:53:51.038Z,42.20
2018-01-26T20:56:18.713Z,45.00
2018-01-26T20:58:46.295Z,44.60
2018-01-26T21:01:13.954Z,45.87
2018-01-26T21:03:41.558Z,42.27
2018-01-26T21:06:09.380Z,48.27
2018-01-26T21:08:36.989Z,43.43
2018-01-26T21:11:04.821Z,51.23
2018-01-26T21:13:32.412Z,46.73
2018-01-26T21:15:59.976Z,47.10
2018-01-26T21:18:27.584Z,46.50
2018-01-26T21:20:55.211Z,42.20
2018-01-26T21:23:22.802Z,49.23
2018-01-26T21:25:50.395Z,56.37
2018-01-26T21:28:17.976Z,40.40
2018-01-26T21:30:45.524Z,50.23
2018-01-26T21:33:13.117Z,65.17
2018-01-26T21:35:40.708Z,46.20
2018-01-26T21:38:08.388Z,53.10
2018-01-26T21:40:35.967Z,54.33
2018-01-26T21:43:03.530Z,54.20
2018-01-26T21:45:31.100Z,64.83
2018-01-26T21:47:58.706Z,50.10
2018-01-26T21:50:27.255Z,49.67
2018-01-26T21:52:54.823Z,56.03
2018-01-26T21:55:22.404Z,53.83
2018-01-26T21:57:50.006Z,50.60
2018-01-26T22:00:17.577Z,55.03
2018-01-26T22:02:45.172Z,48.33
2018-01-26T22:05:15.806Z,62.53
2018-01-26T22:07:43.432Z,59.50
2018-01-26T22:10:11.057Z,49.40
2018-01-26T22:12:38.686Z,54.23
2018-01-26T22:15:06.316Z,58.10
2018-01-26T22:17:34.182Z,62.90
2018-01-26T22:20:02.191Z,69.63
2018-01-26T22:22:29.818Z,55.67
2018-01-26T22:24:57.413Z,60.00
2018-01-26T22:27:25.070Z,50.13
2018-01-26T22:29:52.657Z,53.40
2018-01-26T22:32:20.559Z,63.07
2018-01-26T22:34:48.189Z,61.13
2018-01-26T22:37:15.780Z,58.00
2018-01-26T22:39:43.381Z,54.27
2018-01-26T22:42:10.965Z,67.70
2018-01-26T22:44:38.529Z,66.67
2018-01-26T22:47:06.434Z,63.93
2018-01-26T22:49:33.981Z,61.57
2018-01-26T22:52:02.501Z,59.53
2018-01-26T22:54:30.120Z,63.70
2018-01-26T22:56:57.705Z,61.90
2018-01-26T22:59:25.347Z,67.47
2018-01-26T23:01:52.937Z,65.67
2018-01-26T23:04:20.785Z,63.77
2018-01-26T23:06:48.384Z,61.97
2018-01-26T23:09:15.972Z,72.53
2018-01-26T23:11:43.880Z,71.93
2018-01-26T23:14:11.513Z,65.57
2018-01-26T23:16:39.077Z,75.80
2018-01-26T23:19:06.971Z,76.63
2018-01-26T23:21:36.073Z,69.40
2018-01-26T23:24:03.955Z,70.33
2018-01-26T23:26:32.311Z,65.67
2018-01-26T23:28:59.878Z,96.67
2018-01-26T23:31:27.504Z,76.03
2018-01-26T23:33:55.181Z,69.30
2018-01-26T23:36:22.746Z,67.20
2018-01-26T23:38:50.351Z,70.57
2018-01-26T23:41:18.289Z,75.40
2018-01-26T23:43:45.869Z,59.70
2018-01-26T23:46:13.446Z,68.33
2018-01-26T23:48:41.389Z,71.83
2018-01-26T23:51:08.986Z,73.23
2018-01-26T23:53:36.550Z,85.17
2018-01-26T23:56:04.144Z,70.43
2018-01-26T23:58:31.791Z,83.03
